sensor_id;sensor_type;location;lat;lon;timestamp;temperature;humidity
74809;DHT22;63338;39.544;2.596;2022-12-08T00:40:01;15.00;98.50
74809;DHT22;63338;39.544;2.596;2022-12-08T00:51:41;14.90;98.50
74809;DHT22;63338;39.544;2.596;2022-12-08T00:54:47;14.90;98.30
74809;DHT22;63338;39.544;2.596;2022-12-08T00:57:59;14.90;98.20
74809;DHT22;63338;39.544;2.596;2022-12-08T01:00:58;14.80;98.20
74809;DHT22;63338;39.544;2.596;2022-12-08T01:04:34;14.80;98.10
74809;DHT22;63338;39.544;2.596;2022-12-08T01:07:43;14.80;98.30
74809;DHT22;63338;39.544;2.596;2022-12-08T01:13:55;14.80;98.30
74809;DHT22;63338;39.544;2.596;2022-12-08T01:16:26;14.80;98.40
74809;DHT22;63338;39.544;2.596;2022-12-08T01:19:05;14.70;98.50
74809;DHT22;63338;39.544;2.596;2022-12-08T01:28:19;14.80;98.40
74809;DHT22;63338;39.544;2.596;2022-12-08T01:30:57;14.70;98.60
74809;DHT22;63338;39.544;2.596;2022-12-08T01:41:00;14.80;98.70
74809;DHT22;63338;39.544;2.596;2022-12-08T01:46:49;14.70;98.70
74809;DHT22;63338;39.544;2.596;2022-12-08T01:49:37;14.80;98.80
74809;DHT22;63338;39.544;2.596;2022-12-08T01:55:43;14.80;98.70
74809;DHT22;63338;39.544;2.596;2022-12-08T01:58:35;14.70;98.70
74809;DHT22;63338;39.544;2.596;2022-12-08T02:01:05;14.80;98.60
74809;DHT22;63338;39.544;2.596;2022-12-08T02:03:57;14.80;98.70
74809;DHT22;63338;39.544;2.596;2022-12-08T02:06:23;14.80;98.70
74809;DHT22;63338;39.544;2.596;2022-12-08T02:08:51;14.80;98.80
74809;DHT22;63338;39.544;2.596;2022-12-08T02:11:27;14.80;98.80
74809;DHT22;63338;39.544;2.596;2022-12-08T02:14:06;14.80;98.60
74809;DHT22;63338;39.544;2.596;2022-12-08T02:22:13;14.80;98.70
74809;DHT22;63338;39.544;2.596;2022-12-08T02:25:13;14.70;98.70
74809;DHT22;63338;39.544;2.596;2022-12-08T02:30:53;14.80;98.50
74809;DHT22;63338;39.544;2.596;2022-12-08T02:36:36;14.80;98.80
74809;DHT22;63338;39.544;2.596;2022-12-08T02:42:16;14.70;98.40
74809;DHT22;63338;39.544;2.596;2022-12-08T02:45:08;14.70;98.20
74809;DHT22;63338;39.544;2.596;2022-12-08T02:47:37;14.60;98.20
74809;DHT22;63338;39.544;2.596;2022-12-08T02:50:04;14.60;98.30
74809;DHT22;63338;39.544;2.596;2022-12-08T02:53:49;14.50;98.10
74809;DHT22;63338;39.544;2.596;2022-12-08T03:04:45;14.30;97.80
74809;DHT22;63338;39.544;2.596;2022-12-08T03:07:23;14.30;97.80
74809;DHT22;63338;39.544;2.596;2022-12-08T03:10:41;14.20;98.10
74809;DHT22;63338;39.544;2.596;2022-12-08T03:13:07;14.20;98.20
74809;DHT22;63338;39.544;2.596;2022-12-08T03:15:35;14.10;97.50
74809;DHT22;63338;39.544;2.596;2022-12-08T03:18:04;14.20;97.50
74809;DHT22;63338;39.544;2.596;2022-12-08T03:20:34;14.00;97.80
74809;DHT22;63338;39.544;2.596;2022-12-08T03:23:05;14.00;97.80
74809;DHT22;63338;39.544;2.596;2022-12-08T03:25:40;14.10;97.70
74809;DHT22;63338;39.544;2.596;2022-12-08T03:28:08;14.00;97.60
74809;DHT22;63338;39.544;2.596;2022-12-08T03:30:37;14.00;97.70
74809;DHT22;63338;39.544;2.596;2022-12-08T03:33:21;13.90;97.60
74809;DHT22;63338;39.544;2.596;2022-12-08T03:35:56;13.80;97.70
74809;DHT22;63338;39.544;2.596;2022-12-08T03:38:38;13.90;97.80
74809;DHT22;63338;39.544;2.596;2022-12-08T03:43:04;13.80;97.70
74809;DHT22;63338;39.544;2.596;2022-12-08T03:46:25;13.80;98.00
74809;DHT22;63338;39.544;2.596;2022-12-08T04:12:56;13.70;98.00
74809;DHT22;63338;39.544;2.596;2022-12-08T04:15:22;13.70;98.20
74809;DHT22;63338;39.544;2.596;2022-12-08T04:17:48;13.80;98.60
74809;DHT22;63338;39.544;2.596;2022-12-08T04:20:14;13.80;98.30
74809;DHT22;63338;39.544;2.596;2022-12-08T04:22:40;13.70;98.30
74809;DHT22;63338;39.544;2.596;2022-12-08T04:25:10;13.80;98.40
74809;DHT22;63338;39.544;2.596;2022-12-08T04:27:36;13.70;98.40
74809;DHT22;63338;39.544;2.596;2022-12-08T04:30:09;13.70;98.50
74809;DHT22;63338;39.544;2.596;2022-12-08T04:32:35;13.90;98.30
74809;DHT22;63338;39.544;2.596;2022-12-08T04:35:01;13.80;98.40
74809;DHT22;63338;39.544;2.596;2022-12-08T04:37:35;13.80;98.60
74809;DHT22;63338;39.544;2.596;2022-12-08T04:40:02;13.80;98.70
74809;DHT22;63338;39.544;2.596;2022-12-08T04:42:28;13.90;98.70
74809;DHT22;63338;39.544;2.596;2022-12-08T04:44:54;13.90;98.70
74809;DHT22;63338;39.544;2.596;2022-12-08T04:47:49;13.80;98.50
74809;DHT22;63338;39.544;2.596;2022-12-08T04:50:26;13.80;98.40
74809;DHT22;63338;39.544;2.596;2022-12-08T04:57:00;13.80;98.30
74809;DHT22;63338;39.544;2.596;2022-12-08T04:59:26;13.70;98.20
74809;DHT22;63338;39.544;2.596;2022-12-08T05:01:52;13.70;98.20
74809;DHT22;63338;39.544;2.596;2022-12-08T05:04:18;13.60;97.90
74809;DHT22;63338;39.544;2.596;2022-12-08T05:06:44;13.60;98.00
74809;DHT22;63338;39.544;2.596;2022-12-08T05:09:11;13.60;98.20
74809;DHT22;63338;39.544;2.596;2022-12-08T05:11:37;13.60;98.20
74809;DHT22;63338;39.544;2.596;2022-12-08T05:14:11;13.50;98.10
74809;DHT22;63338;39.544;2.596;2022-12-08T05:16:38;13.60;98.00
74809;DHT22;63338;39.544;2.596;2022-12-08T05:22:45;13.50;98.10
74809;DHT22;63338;39.544;2.596;2022-12-08T05:25:11;13.60;98.20
74809;DHT22;63338;39.544;2.596;2022-12-08T05:27:37;13.50;98.20
74809;DHT22;63338;39.544;2.596;2022-12-08T05:30:07;13.60;98.30
74809;DHT22;63338;39.544;2.596;2022-12-08T05:32:33;13.50;98.00
74809;DHT22;63338;39.544;2.596;2022-12-08T05:34:59;13.50;98.10
74809;DHT22;63338;39.544;2.596;2022-12-08T05:37:25;13.40;98.00
74809;DHT22;63338;39.544;2.596;2022-12-08T05:39:52;13.40;97.90
74809;DHT22;63338;39.544;2.596;2022-12-08T05:42:20;13.40;98.00
74809;DHT22;63338;39.544;2.596;2022-12-08T05:44:49;13.40;97.90
74809;DHT22;63338;39.544;2.596;2022-12-08T05:47:39;13.30;98.00
74809;DHT22;63338;39.544;2.596;2022-12-08T05:50:05;13.40;98.10
74809;DHT22;63338;39.544;2.596;2022-12-08T05:52:40;13.30;97.80
74809;DHT22;63338;39.544;2.596;2022-12-08T05:55:07;13.20;97.70
74809;DHT22;63338;39.544;2.596;2022-12-08T05:57:33;13.30;97.80
74809;DHT22;63338;39.544;2.596;2022-12-08T05:59:58;13.30;98.00
74809;DHT22;63338;39.544;2.596;2022-12-08T06:02:25;13.20;97.90
74809;DHT22;63338;39.544;2.596;2022-12-08T06:04:54;13.20;97.90
74809;DHT22;63338;39.544;2.596;2022-12-08T06:07:28;13.20;97.90
74809;DHT22;63338;39.544;2.596;2022-12-08T06:09:59;13.20;97.90
74809;DHT22;63338;39.544;2.596;2022-12-08T06:12:28;13.10;98.10
74809;DHT22;63338;39.544;2.596;2022-12-08T06:14:54;13.20;98.00
74809;DHT22;63338;39.544;2.596;2022-12-08T06:17:20;13.10;97.80
74809;DHT22;63338;39.544;2.596;2022-12-08T06:19:46;13.20;98.00
74809;DHT22;63338;39.544;2.596;2022-12-08T06:22:12;13.10;97.80
74809;DHT22;63338;39.544;2.596;2022-12-08T06:24:39;13.10;98.10
74809;DHT22;63338;39.544;2.596;2022-12-08T06:27:05;13.20;98.00
74809;DHT22;63338;39.544;2.596;2022-12-08T06:29:31;13.10;98.00
74809;DHT22;63338;39.544;2.596;2022-12-08T06:31:57;13.10;98.10
74809;DHT22;63338;39.544;2.596;2022-12-08T06:34:23;13.10;98.10
74809;DHT22;63338;39.544;2.596;2022-12-08T06:36:50;13.10;98.10
74809;DHT22;63338;39.544;2.596;2022-12-08T06:39:16;13.10;98.00
74809;DHT22;63338;39.544;2.596;2022-12-08T06:41:42;13.00;98.10
74809;DHT22;63338;39.544;2.596;2022-12-08T06:44:27;13.10;98.00
74809;DHT22;63338;39.544;2.596;2022-12-08T06:46:53;13.10;98.20
74809;DHT22;63338;39.544;2.596;2022-12-08T06:49:19;13.10;98.10
74809;DHT22;63338;39.544;2.596;2022-12-08T06:51:46;13.00;98.20
74809;DHT22;63338;39.544;2.596;2022-12-08T06:54:14;13.00;97.90
74809;DHT22;63338;39.544;2.596;2022-12-08T06:56:49;13.10;97.90
74809;DHT22;63338;39.544;2.596;2022-12-08T07:00:07;13.10;98.00
74809;DHT22;63338;39.544;2.596;2022-12-08T07:02:34;13.00;98.00
74809;DHT22;63338;39.544;2.596;2022-12-08T07:05:00;13.00;97.90
74809;DHT22;63338;39.544;2.596;2022-12-08T07:07:28;13.10;98.10
74809;DHT22;63338;39.544;2.596;2022-12-08T07:10:04;13.00;98.00
74809;DHT22;63338;39.544;2.596;2022-12-08T07:16:59;13.10;98.30
74809;DHT22;63338;39.544;2.596;2022-12-08T07:19:26;13.10;98.60
74809;DHT22;63338;39.544;2.596;2022-12-08T07:21:56;13.10;98.60
74809;DHT22;63338;39.544;2.596;2022-12-08T07:24:22;13.20;98.60
74809;DHT22;63338;39.544;2.596;2022-12-08T07:26:48;13.10;98.80
74809;DHT22;63338;39.544;2.596;2022-12-08T07:29:14;13.20;98.90
74809;DHT22;63338;39.544;2.596;2022-12-08T07:31:40;13.30;98.80
74809;DHT22;63338;39.544;2.596;2022-12-08T07:34:09;13.30;98.80
74809;DHT22;63338;39.544;2.596;2022-12-08T07:36:35;13.20;99.00
74809;DHT22;63338;39.544;2.596;2022-12-08T07:39:02;13.30;99.00
74809;DHT22;63338;39.544;2.596;2022-12-08T07:41:28;13.40;99.00
74809;DHT22;63338;39.544;2.596;2022-12-08T07:44:16;13.40;98.90
74809;DHT22;63338;39.544;2.596;2022-12-08T07:47:36;13.50;98.80
74809;DHT22;63338;39.544;2.596;2022-12-08T07:50:07;13.60;99.20
74809;DHT22;63338;39.544;2.596;2022-12-08T07:52:34;13.60;98.80
74809;DHT22;63338;39.544;2.596;2022-12-08T07:55:01;13.70;99.00
74809;DHT22;63338;39.544;2.596;2022-12-08T07:57:27;13.80;98.90
74809;DHT22;63338;39.544;2.596;2022-12-08T07:59:56;13.70;99.20
74809;DHT22;63338;39.544;2.596;2022-12-08T08:02:22;13.80;99.20
74809;DHT22;63338;39.544;2.596;2022-12-08T08:04:54;13.90;99.10
74809;DHT22;63338;39.544;2.596;2022-12-08T08:07:20;14.00;99.00
74809;DHT22;63338;39.544;2.596;2022-12-08T08:09:49;13.90;98.80
74809;DHT22;63338;39.544;2.596;2022-12-08T08:12:15;14.00;98.80
74809;DHT22;63338;39.544;2.596;2022-12-08T08:14:41;14.00;98.70
74809;DHT22;63338;39.544;2.596;2022-12-08T08:17:08;14.00;98.80
74809;DHT22;63338;39.544;2.596;2022-12-08T08:19:34;14.10;98.90
74809;DHT22;63338;39.544;2.596;2022-12-08T08:22:02;14.20;98.80
74809;DHT22;63338;39.544;2.596;2022-12-08T08:24:29;14.20;98.90
74809;DHT22;63338;39.544;2.596;2022-12-08T08:26:58;14.30;99.00
74809;DHT22;63338;39.544;2.596;2022-12-08T08:29:30;14.30;99.10
74809;DHT22;63338;39.544;2.596;2022-12-08T08:31:57;14.50;99.20
74809;DHT22;63338;39.544;2.596;2022-12-08T08:35:08;14.50;99.10
74809;DHT22;63338;39.544;2.596;2022-12-08T08:38:26;14.60;98.90
74809;DHT22;63338;39.544;2.596;2022-12-08T08:40:52;14.70;99.10
74809;DHT22;63338;39.544;2.596;2022-12-08T08:43:18;14.70;99.30
74809;DHT22;63338;39.544;2.596;2022-12-08T08:45:58;14.80;99.10
74809;DHT22;63338;39.544;2.596;2022-12-08T08:48:29;15.00;99.30
74809;DHT22;63338;39.544;2.596;2022-12-08T08:50:56;15.10;99.30
74809;DHT22;63338;39.544;2.596;2022-12-08T08:53:25;15.20;99.50
74809;DHT22;63338;39.544;2.596;2022-12-08T08:55:55;15.30;99.40
74809;DHT22;63338;39.544;2.596;2022-12-08T08:58:24;15.40;99.40
74809;DHT22;63338;39.544;2.596;2022-12-08T09:00:50;15.40;99.30
74809;DHT22;63338;39.544;2.596;2022-12-08T09:03:16;15.50;97.80
74809;DHT22;63338;39.544;2.596;2022-12-08T09:05:44;15.50;97.70
74809;DHT22;63338;39.544;2.596;2022-12-08T09:08:12;15.50;97.70
74809;DHT22;63338;39.544;2.596;2022-12-08T09:10:45;15.70;97.80
74809;DHT22;63338;39.544;2.596;2022-12-08T09:13:48;15.70;97.80
74809;DHT22;63338;39.544;2.596;2022-12-08T09:17:22;15.80;97.80
74809;DHT22;63338;39.544;2.596;2022-12-08T09:20:27;16.00;97.70
74809;DHT22;63338;39.544;2.596;2022-12-08T09:26:08;16.10;97.20
74809;DHT22;63338;39.544;2.596;2022-12-08T09:28:40;16.20;97.20
74809;DHT22;63338;39.544;2.596;2022-12-08T09:31:35;16.10;96.90
74809;DHT22;63338;39.544;2.596;2022-12-08T09:34:21;16.20;96.80
74809;DHT22;63338;39.544;2.596;2022-12-08T09:36:59;16.30;96.50
74809;DHT22;63338;39.544;2.596;2022-12-08T09:39:36;16.20;96.30
74809;DHT22;63338;39.544;2.596;2022-12-08T09:45:54;16.30;96.00
74809;DHT22;63338;39.544;2.596;2022-12-08T09:48:24;16.40;96.10
74809;DHT22;63338;39.544;2.596;2022-12-08T09:50:56;16.40;95.80
74809;DHT22;63338;39.544;2.596;2022-12-08T09:53:38;16.40;95.80
74809;DHT22;63338;39.544;2.596;2022-12-08T09:56:19;16.40;95.80
74809;DHT22;63338;39.544;2.596;2022-12-08T10:01:50;16.60;95.80
74809;DHT22;63338;39.544;2.596;2022-12-08T10:08:36;16.80;95.80
74809;DHT22;63338;39.544;2.596;2022-12-08T10:15:43;16.80;95.00
74809;DHT22;63338;39.544;2.596;2022-12-08T10:18:17;16.90;95.00
74809;DHT22;63338;39.544;2.596;2022-12-08T10:21:19;17.00;95.10
74809;DHT22;63338;39.544;2.596;2022-12-08T10:23:47;17.10;95.20
74809;DHT22;63338;39.544;2.596;2022-12-08T10:26:19;17.30;95.20
74809;DHT22;63338;39.544;2.596;2022-12-08T10:28:45;17.50;95.00
74809;DHT22;63338;39.544;2.596;2022-12-08T10:31:24;18.20;94.30
74809;DHT22;63338;39.544;2.596;2022-12-08T10:34:29;18.60;93.60
74809;DHT22;63338;39.544;2.596;2022-12-08T10:37:08;18.90;91.10
74809;DHT22;63338;39.544;2.596;2022-12-08T10:40:03;19.10;89.60
74809;DHT22;63338;39.544;2.596;2022-12-08T10:42:53;19.40;87.50
74809;DHT22;63338;39.544;2.596;2022-12-08T10:45:32;19.80;87.30
74809;DHT22;63338;39.544;2.596;2022-12-08T10:48:34;20.20;85.90
74809;DHT22;63338;39.544;2.596;2022-12-08T10:51:28;20.50;85.20
74809;DHT22;63338;39.544;2.596;2022-12-08T10:54:00;20.60;83.70
74809;DHT22;63338;39.544;2.596;2022-12-08T10:56:30;20.80;83.10
74809;DHT22;63338;39.544;2.596;2022-12-08T11:02:57;20.80;81.80
74809;DHT22;63338;39.544;2.596;2022-12-08T11:05:34;20.40;82.90
74809;DHT22;63338;39.544;2.596;2022-12-08T11:12:27;20.00;83.20
74809;DHT22;63338;39.544;2.596;2022-12-08T11:15:57;19.70;82.90
74809;DHT22;63338;39.544;2.596;2022-12-08T11:18:58;19.40;84.20
74809;DHT22;63338;39.544;2.596;2022-12-08T11:25:27;19.00;85.10
74809;DHT22;63338;39.544;2.596;2022-12-08T11:27:56;18.90;85.60
74809;DHT22;63338;39.544;2.596;2022-12-08T11:30:26;18.80;85.60
74809;DHT22;63338;39.544;2.596;2022-12-08T11:35:43;18.80;85.70
74809;DHT22;63338;39.544;2.596;2022-12-08T11:38:13;18.80;86.40
74809;DHT22;63338;39.544;2.596;2022-12-08T11:40:42;18.80;85.90
74809;DHT22;63338;39.544;2.596;2022-12-08T11:45:42;18.70;86.50
74809;DHT22;63338;39.544;2.596;2022-12-08T11:51:56;18.70;86.00
74809;DHT22;63338;39.544;2.596;2022-12-08T11:54:35;18.80;86.90
74809;DHT22;63338;39.544;2.596;2022-12-08T11:57:07;19.00;86.80
74809;DHT22;63338;39.544;2.596;2022-12-08T11:59:44;19.30;86.90
74809;DHT22;63338;39.544;2.596;2022-12-08T12:02:24;19.40;86.00
74809;DHT22;63338;39.544;2.596;2022-12-08T12:05:20;19.50;85.50
74809;DHT22;63338;39.544;2.596;2022-12-08T12:11:22;19.60;84.90
74809;DHT22;63338;39.544;2.596;2022-12-08T12:17:04;19.70;84.20
74809;DHT22;63338;39.544;2.596;2022-12-08T12:19:38;19.70;82.20
74809;DHT22;63338;39.544;2.596;2022-12-08T12:22:14;19.60;82.20
74809;DHT22;63338;39.544;2.596;2022-12-08T12:24:54;19.80;82.80
74809;DHT22;63338;39.544;2.596;2022-12-08T12:27:37;20.00;82.30
74809;DHT22;63338;39.544;2.596;2022-12-08T12:30:26;20.20;82.00
74809;DHT22;63338;39.544;2.596;2022-12-08T12:32:57;20.60;80.90
74809;DHT22;63338;39.544;2.596;2022-12-08T12:35:34;20.60;80.50
74809;DHT22;63338;39.544;2.596;2022-12-08T12:38:07;20.40;80.30
74809;DHT22;63338;39.544;2.596;2022-12-08T12:41:00;20.20;80.80
74809;DHT22;63338;39.544;2.596;2022-12-08T12:43:36;20.20;80.40
74809;DHT22;63338;39.544;2.596;2022-12-08T12:48:48;20.80;78.80
74809;DHT22;63338;39.544;2.596;2022-12-08T12:54:33;21.50;75.80
74809;DHT22;63338;39.544;2.596;2022-12-08T13:13:03;20.70;77.20
74809;DHT22;63338;39.544;2.596;2022-12-08T13:18:36;20.70;77.90
74809;DHT22;63338;39.544;2.596;2022-12-08T13:21:12;20.90;77.10
74809;DHT22;63338;39.544;2.596;2022-12-08T13:26:29;21.10;75.50
74809;DHT22;63338;39.544;2.596;2022-12-08T13:29:25;21.10;74.20
74809;DHT22;63338;39.544;2.596;2022-12-08T13:34:49;21.30;74.40
74809;DHT22;63338;39.544;2.596;2022-12-08T13:37:48;21.50;74.30
74809;DHT22;63338;39.544;2.596;2022-12-08T13:40:49;21.50;73.50
74809;DHT22;63338;39.544;2.596;2022-12-08T13:44:00;21.50;73.70
74809;DHT22;63338;39.544;2.596;2022-12-08T13:47:01;21.20;74.60
74809;DHT22;63338;39.544;2.596;2022-12-08T13:49:41;20.90;75.60
74809;DHT22;63338;39.544;2.596;2022-12-08T13:52:29;20.60;76.60
74809;DHT22;63338;39.544;2.596;2022-12-08T13:54:57;20.40;77.50
74809;DHT22;63338;39.544;2.596;2022-12-08T13:57:32;20.20;78.60
74809;DHT22;63338;39.544;2.596;2022-12-08T14:00:22;20.00;78.00
74809;DHT22;63338;39.544;2.596;2022-12-08T14:02:51;19.90;78.20
74809;DHT22;63338;39.544;2.596;2022-12-08T14:08:56;19.50;79.80
74809;DHT22;63338;39.544;2.596;2022-12-08T14:11:38;19.40;79.70
74809;DHT22;63338;39.544;2.596;2022-12-08T14:14:18;19.40;80.10
74809;DHT22;63338;39.544;2.596;2022-12-08T14:20:35;19.20;80.20
74809;DHT22;63338;39.544;2.596;2022-12-08T14:23:35;19.00;80.90
74809;DHT22;63338;39.544;2.596;2022-12-08T14:26:05;19.00;81.50
74809;DHT22;63338;39.544;2.596;2022-12-08T14:28:40;18.90;81.80
74809;DHT22;63338;39.544;2.596;2022-12-08T14:31:08;18.90;81.50
74809;DHT22;63338;39.544;2.596;2022-12-08T14:33:39;18.80;81.00
74809;DHT22;63338;39.544;2.596;2022-12-08T14:36:08;18.80;81.00
74809;DHT22;63338;39.544;2.596;2022-12-08T14:38:35;18.70;81.10
74809;DHT22;63338;39.544;2.596;2022-12-08T14:41:04;18.70;81.50
74809;DHT22;63338;39.544;2.596;2022-12-08T14:43:32;18.60;81.70
74809;DHT22;63338;39.544;2.596;2022-12-08T14:46:01;18.60;82.00
74809;DHT22;63338;39.544;2.596;2022-12-08T14:53:42;18.50;82.10
74809;DHT22;63338;39.544;2.596;2022-12-08T14:59:29;18.60;82.70
74809;DHT22;63338;39.544;2.596;2022-12-08T15:08:22;18.30;83.80
74809;DHT22;63338;39.544;2.596;2022-12-08T15:13:48;18.30;83.90
74809;DHT22;63338;39.544;2.596;2022-12-08T15:16:50;18.20;84.00
74809;DHT22;63338;39.544;2.596;2022-12-08T15:19:30;18.20;84.30
74809;DHT22;63338;39.544;2.596;2022-12-08T15:22:19;18.20;84.40
74809;DHT22;63338;39.544;2.596;2022-12-08T15:24:45;18.20;85.30
74809;DHT22;63338;39.544;2.596;2022-12-08T15:27:23;18.10;86.50
74809;DHT22;63338;39.544;2.596;2022-12-08T15:29:50;18.00;86.30
74809;DHT22;63338;39.544;2.596;2022-12-08T15:32:20;18.00;86.10
74809;DHT22;63338;39.544;2.596;2022-12-08T15:34:46;18.00;86.70
74809;DHT22;63338;39.544;2.596;2022-12-08T15:38:11;18.00;86.70
74809;DHT22;63338;39.544;2.596;2022-12-08T15:40:42;17.90;86.70
74809;DHT22;63338;39.544;2.596;2022-12-08T15:43:10;17.90;86.70
74809;DHT22;63338;39.544;2.596;2022-12-08T15:45:36;17.90;86.80
74809;DHT22;63338;39.544;2.596;2022-12-08T15:48:02;17.80;86.80
74809;DHT22;63338;39.544;2.596;2022-12-08T15:50:28;17.80;87.00
74809;DHT22;63338;39.544;2.596;2022-12-08T15:52:55;17.90;86.90
74809;DHT22;63338;39.544;2.596;2022-12-08T15:55:24;17.80;87.00
74809;DHT22;63338;39.544;2.596;2022-12-08T15:57:52;17.70;86.90
74809;DHT22;63338;39.544;2.596;2022-12-08T16:02:51;17.80;86.80
74809;DHT22;63338;39.544;2.596;2022-12-08T16:05:17;17.70;87.10
74809;DHT22;63338;39.544;2.596;2022-12-08T16:07:44;17.70;87.20
74809;DHT22;63338;39.544;2.596;2022-12-08T16:10:16;17.80;87.10
74809;DHT22;63338;39.544;2.596;2022-12-08T16:12:43;17.70;87.50
74809;DHT22;63338;39.544;2.596;2022-12-08T16:15:37;17.70;87.00
74809;DHT22;63338;39.544;2.596;2022-12-08T16:18:05;17.70;86.80
74809;DHT22;63338;39.544;2.596;2022-12-08T16:20:32;17.60;87.10
74809;DHT22;63338;39.544;2.596;2022-12-08T16:22:59;17.70;87.10
74809;DHT22;63338;39.544;2.596;2022-12-08T16:25:25;17.50;87.40
74809;DHT22;63338;39.544;2.596;2022-12-08T16:27:53;17.50;87.20
74809;DHT22;63338;39.544;2.596;2022-12-08T16:30:22;17.50;87.40
74809;DHT22;63338;39.544;2.596;2022-12-08T16:32:49;17.40;87.40
74809;DHT22;63338;39.544;2.596;2022-12-08T16:35:18;17.40;87.70
74809;DHT22;63338;39.544;2.596;2022-12-08T16:37:44;17.50;87.70
74809;DHT22;63338;39.544;2.596;2022-12-08T16:40:11;17.40;88.00
74809;DHT22;63338;39.544;2.596;2022-12-08T16:42:40;17.40;88.30
74809;DHT22;63338;39.544;2.596;2022-12-08T16:47:43;17.30;88.90
74809;DHT22;63338;39.544;2.596;2022-12-08T16:50:16;17.30;88.70
74809;DHT22;63338;39.544;2.596;2022-12-08T16:52:42;17.30;88.70
74809;DHT22;63338;39.544;2.596;2022-12-08T16:55:17;17.30;88.80
74809;DHT22;63338;39.544;2.596;2022-12-08T16:57:44;17.20;88.70
74809;DHT22;63338;39.544;2.596;2022-12-08T17:00:15;17.20;88.50
74809;DHT22;63338;39.544;2.596;2022-12-08T17:02:42;17.20;88.70
74809;DHT22;63338;39.544;2.596;2022-12-08T17:05:14;17.30;88.70
74809;DHT22;63338;39.544;2.596;2022-12-08T17:07:42;17.30;88.90
74809;DHT22;63338;39.544;2.596;2022-12-08T17:10:10;17.30;89.20
74809;DHT22;63338;39.544;2.596;2022-12-08T17:12:41;17.20;89.40
74809;DHT22;63338;39.544;2.596;2022-12-08T17:15:11;17.10;89.50
74809;DHT22;63338;39.544;2.596;2022-12-08T17:17:38;17.20;89.50
74809;DHT22;63338;39.544;2.596;2022-12-08T17:20:07;17.20;89.40
74809;DHT22;63338;39.544;2.596;2022-12-08T17:22:34;17.30;89.50
74809;DHT22;63338;39.544;2.596;2022-12-08T17:25:01;17.20;89.50
74809;DHT22;63338;39.544;2.596;2022-12-08T17:27:27;17.20;89.70
74809;DHT22;63338;39.544;2.596;2022-12-08T17:29:53;17.20;89.70
74809;DHT22;63338;39.544;2.596;2022-12-08T17:32:22;17.20;89.80
74809;DHT22;63338;39.544;2.596;2022-12-08T17:34:49;17.20;89.90
74809;DHT22;63338;39.544;2.596;2022-12-08T17:37:15;17.20;89.90
74809;DHT22;63338;39.544;2.596;2022-12-08T17:39:45;17.10;90.10
74809;DHT22;63338;39.544;2.596;2022-12-08T17:42:11;17.20;90.20
74809;DHT22;63338;39.544;2.596;2022-12-08T17:44:37;17.10;90.10
74809;DHT22;63338;39.544;2.596;2022-12-08T17:47:06;17.10;90.10
74809;DHT22;63338;39.544;2.596;2022-12-08T17:49:33;17.10;90.30
74809;DHT22;63338;39.544;2.596;2022-12-08T17:52:21;17.00;90.50
74809;DHT22;63338;39.544;2.596;2022-12-08T17:54:48;17.00;90.50
74809;DHT22;63338;39.544;2.596;2022-12-08T17:57:15;17.00;90.80
74809;DHT22;63338;39.544;2.596;2022-12-08T17:59:41;17.00;90.70
74809;DHT22;63338;39.544;2.596;2022-12-08T18:02:09;16.90;91.00
74809;DHT22;63338;39.544;2.596;2022-12-08T18:04:40;16.80;91.30
74809;DHT22;63338;39.544;2.596;2022-12-08T18:10:37;16.80;91.60
74809;DHT22;63338;39.544;2.596;2022-12-08T18:13:06;16.80;91.80
74809;DHT22;63338;39.544;2.596;2022-12-08T18:15:32;16.90;91.70
74809;DHT22;63338;39.544;2.596;2022-12-08T18:18:02;16.90;91.80
74809;DHT22;63338;39.544;2.596;2022-12-08T18:20:37;16.80;91.90
74809;DHT22;63338;39.544;2.596;2022-12-08T18:23:04;16.90;92.00
74809;DHT22;63338;39.544;2.596;2022-12-08T18:25:31;16.80;92.10
74809;DHT22;63338;39.544;2.596;2022-12-08T18:28:00;16.80;92.00
74809;DHT22;63338;39.544;2.596;2022-12-08T18:30:29;16.90;91.90
74809;DHT22;63338;39.544;2.596;2022-12-08T18:32:55;16.70;91.90
74809;DHT22;63338;39.544;2.596;2022-12-08T18:35:22;16.80;92.10
74809;DHT22;63338;39.544;2.596;2022-12-08T18:37:48;16.80;92.20
74809;DHT22;63338;39.544;2.596;2022-12-08T18:40:15;16.70;92.20
74809;DHT22;63338;39.544;2.596;2022-12-08T18:43:10;16.70;92.20
74809;DHT22;63338;39.544;2.596;2022-12-08T18:45:39;16.70;92.30
74809;DHT22;63338;39.544;2.596;2022-12-08T18:48:06;16.70;92.30
74809;DHT22;63338;39.544;2.596;2022-12-08T18:50:33;16.70;92.60
74809;DHT22;63338;39.544;2.596;2022-12-08T18:53:05;16.60;92.40
74809;DHT22;63338;39.544;2.596;2022-12-08T18:55:31;16.70;92.50
74809;DHT22;63338;39.544;2.596;2022-12-08T18:57:58;16.60;92.60
74809;DHT22;63338;39.544;2.596;2022-12-08T19:00:56;16.60;92.40
74809;DHT22;63338;39.544;2.596;2022-12-08T19:04:15;16.60;92.60
74809;DHT22;63338;39.544;2.596;2022-12-08T19:06:47;16.50;93.10
74809;DHT22;63338;39.544;2.596;2022-12-08T19:09:25;16.50;92.60
74809;DHT22;63338;39.544;2.596;2022-12-08T19:12:14;16.50;92.50
74809;DHT22;63338;39.544;2.596;2022-12-08T19:14:56;16.50;92.90
74809;DHT22;63338;39.544;2.596;2022-12-08T19:17:25;16.40;93.20
74809;DHT22;63338;39.544;2.596;2022-12-08T19:19:54;16.40;93.00
74809;DHT22;63338;39.544;2.596;2022-12-08T19:22:20;16.30;93.20
74809;DHT22;63338;39.544;2.596;2022-12-08T19:24:47;16.30;93.10
74809;DHT22;63338;39.544;2.596;2022-12-08T19:27:21;16.30;93.40
74809;DHT22;63338;39.544;2.596;2022-12-08T19:29:49;16.30;93.50
74809;DHT22;63338;39.544;2.596;2022-12-08T19:32:24;16.40;93.20
74809;DHT22;63338;39.544;2.596;2022-12-08T19:34:51;16.30;93.40
74809;DHT22;63338;39.544;2.596;2022-12-08T19:37:20;16.30;93.70
74809;DHT22;63338;39.544;2.596;2022-12-08T19:39:53;16.40;93.60
74809;DHT22;63338;39.544;2.596;2022-12-08T19:42:39;16.20;93.70
74809;DHT22;63338;39.544;2.596;2022-12-08T19:45:28;16.20;93.80
74809;DHT22;63338;39.544;2.596;2022-12-08T19:48:00;16.30;93.90
74809;DHT22;63338;39.544;2.596;2022-12-08T19:50:26;16.30;93.60
74809;DHT22;63338;39.544;2.596;2022-12-08T19:53:12;16.30;93.70
74809;DHT22;63338;39.544;2.596;2022-12-08T19:55:40;16.20;93.90
74809;DHT22;63338;39.544;2.596;2022-12-08T19:58:07;16.20;93.70
74809;DHT22;63338;39.544;2.596;2022-12-08T20:00:45;16.30;94.00
74809;DHT22;63338;39.544;2.596;2022-12-08T20:03:17;16.30;94.10
74809;DHT22;63338;39.544;2.596;2022-12-08T20:05:46;16.20;94.00
74809;DHT22;63338;39.544;2.596;2022-12-08T20:08:13;16.20;94.00
74809;DHT22;63338;39.544;2.596;2022-12-08T20:10:41;16.20;93.90
74809;DHT22;63338;39.544;2.596;2022-12-08T20:13:08;16.20;94.00
74809;DHT22;63338;39.544;2.596;2022-12-08T20:15:53;16.10;94.00
74809;DHT22;63338;39.544;2.596;2022-12-08T20:18:20;16.20;93.90
74809;DHT22;63338;39.544;2.596;2022-12-08T20:20:49;16.20;93.80